createdAt,value
2023-01-18T00:01:55.340Z,4.93
2023-01-18T00:04:35.779Z,5.28
2023-01-18T00:07:09.817Z,4.80
2023-01-18T00:09:41.091Z,4.03
2023-01-18T00:12:19.433Z,4.53
2023-01-18T00:14:53.083Z,4.90
2023-01-18T00:17:31.110Z,5.60
2023-01-18T00:20:04.546Z,4.40
2023-01-18T00:22:39.467Z,4.70
2023-01-18T00:25:17.988Z,5.07
2023-01-18T00:27:54.285Z,5.97
2023-01-18T00:30:35.249Z,6.15
2023-01-18T00:33:13.189Z,7.03
2023-01-18T00:35:42.092Z,6.80
2023-01-18T00:38:12.144Z,8.18
2023-01-18T00:40:47.183Z,6.80
2023-01-18T00:43:34.367Z,6.38
2023-01-18T00:46:04.570Z,6.03
2023-01-18T00:48:32.925Z,6.18
2023-01-18T00:51:08.280Z,4.75
2023-01-18T00:53:40.562Z,5.93
2023-01-18T00:56:16.274Z,4.53
2023-01-18T00:58:50.794Z,5.22
2023-01-18T01:01:45.905Z,5.20
2023-01-18T01:04:39.735Z,4.90
2023-01-18T01:10:10.616Z,5.43
2023-01-18T01:12:57.753Z,5.57
2023-01-18T01:15:45.451Z,5.43
2023-01-18T01:18:51.617Z,5.45
2023-01-18T01:21:42.776Z,5.57
2023-01-18T01:24:29.347Z,5.22
2023-01-18T01:26:59.450Z,5.22
2023-01-18T01:29:56.424Z,6.20
2023-01-18T01:32:25.430Z,5.53
2023-01-18T01:34:54.304Z,7.30
2023-01-18T01:37:26.163Z,7.03
2023-01-18T01:39:53.825Z,6.03
2023-01-18T01:42:21.741Z,6.07
2023-01-18T01:44:52.579Z,6.38
2023-01-18T01:47:33.411Z,7.05
2023-01-18T01:50:16.184Z,6.65
2023-01-18T01:52:46.180Z,6.55
2023-01-18T01:55:23.190Z,7.35
2023-01-18T01:58:00.701Z,7.70
2023-01-18T02:00:37.502Z,7.07
2023-01-18T02:03:09.318Z,8.48
2023-01-18T02:05:45.397Z,8.20
2023-01-18T02:11:32.869Z,10.23
2023-01-18T02:14:07.933Z,8.85
2023-01-18T02:17:33.691Z,8.80
2023-01-18T02:20:42.775Z,9.85
2023-01-18T02:23:36.234Z,9.93
2023-01-18T02:26:33.494Z,10.07
2023-01-18T02:29:12.239Z,10.80
2023-01-18T02:31:55.059Z,9.80
2023-01-18T02:34:31.210Z,11.50
2023-01-18T02:37:30.428Z,10.27
2023-01-18T02:40:26.601Z,9.93
2023-01-18T02:43:15.751Z,9.07
2023-01-18T02:46:36.305Z,11.10
2023-01-18T02:49:40.721Z,9.10
2023-01-18T02:53:07.524Z,9.85
2023-01-18T02:55:47.260Z,9.10
2023-01-18T02:59:20.380Z,9.60
2023-01-18T03:05:13.025Z,8.65
2023-01-18T03:08:27.390Z,8.40
2023-01-18T03:11:23.959Z,8.70
2023-01-18T03:14:20.974Z,8.02
2023-01-18T03:17:00.303Z,7.85
2023-01-18T03:20:04.256Z,7.07
2023-01-18T03:23:14.370Z,7.90
2023-01-18T03:25:48.847Z,7.53
2023-01-18T03:29:29.496Z,8.25
2023-01-18T03:32:31.838Z,8.00
2023-01-18T03:35:08.261Z,7.63
2023-01-18T03:37:40.464Z,7.35
2023-01-18T03:40:15.800Z,7.43
2023-01-18T03:43:01.454Z,8.13
2023-01-18T03:45:42.778Z,7.47
2023-01-18T03:48:12.860Z,8.30
2023-01-18T03:50:51.989Z,7.00
2023-01-18T03:53:39.439Z,7.95
2023-01-18T03:56:22.309Z,7.47
2023-01-18T03:58:52.992Z,6.82
2023-01-18T04:01:28.554Z,7.38
2023-01-18T06:42:50.351Z,4.25
2023-01-18T06:45:35.639Z,4.93
2023-01-18T06:48:15.819Z,3.60
2023-01-18T06:50:49.024Z,7.90
2023-01-18T07:39:12.547Z,3.80
2023-01-18T07:41:42.376Z,4.72
2023-01-18T07:44:12.491Z,3.38
2023-01-18T07:46:43.362Z,4.95
2023-01-18T07:49:12.579Z,12.88
2023-01-18T07:51:41.496Z,6.40
2023-01-18T07:54:12.462Z,10.50
2023-01-18T07:56:40.449Z,25.27
2023-01-18T07:59:21.749Z,4.00
2023-01-18T08:01:49.547Z,7.07
2023-01-18T08:04:17.290Z,6.45
2023-01-18T08:06:47.438Z,2.95
2023-01-18T08:09:15.795Z,5.15
2023-01-18T08:11:46.638Z,2.40
2023-01-18T08:14:14.137Z,2.72
2023-01-18T08:16:43.026Z,1.92
2023-01-18T08:19:16.734Z,2.30
2023-01-18T08:21:46.048Z,5.45
2023-01-18T08:24:13.977Z,2.90
2023-01-18T08:26:42.036Z,2.63
2023-01-18T08:29:09.828Z,2.72
2023-01-18T08:31:37.514Z,13.48
2023-01-18T08:34:05.237Z,2.97
2023-01-18T08:36:32.652Z,3.85
2023-01-18T08:39:13.322Z,9.77
2023-01-18T08:41:42.095Z,9.15
2023-01-18T08:44:09.857Z,6.07
2023-01-18T08:46:39.537Z,7.30
2023-01-18T08:49:10.683Z,5.63
2023-01-18T08:51:38.427Z,4.85
2023-01-18T08:54:07.352Z,10.60
2023-01-18T08:56:35.235Z,7.30
2023-01-18T08:59:02.884Z,7.43
2023-01-18T09:01:30.675Z,1.58
2023-01-18T09:03:58.700Z,3.00
2023-01-18T09:06:32.268Z,2.63
2023-01-18T09:09:01.205Z,3.42
2023-01-18T09:11:31.433Z,2.92
2023-01-18T09:14:02.453Z,5.95
2023-01-18T09:16:31.905Z,4.07
2023-01-18T09:19:01.120Z,3.78
2023-01-18T09:21:28.990Z,3.60
2023-01-18T09:23:57.311Z,3.97
2023-01-18T09:26:24.883Z,4.07
2023-01-18T09:28:54.628Z,5.25
2023-01-18T09:31:46.424Z,5.10
2023-01-18T09:34:19.207Z,4.88
2023-01-18T09:36:53.229Z,9.95
2023-01-18T09:39:22.397Z,11.25
2023-01-18T09:42:03.028Z,8.57
2023-01-18T09:44:32.920Z,4.65
2023-01-18T09:47:06.348Z,9.52
2023-01-18T09:49:46.569Z,5.72
2023-01-18T09:52:33.537Z,5.60
2023-01-18T09:55:24.902Z,4.70
2023-01-18T09:58:11.507Z,4.50
2023-01-18T10:00:43.354Z,4.20
2023-01-18T10:03:27.290Z,3.67
2023-01-18T10:06:15.469Z,3.40
2023-01-18T10:08:57.741Z,4.57
2023-01-18T10:11:34.375Z,3.60
2023-01-18T10:14:09.153Z,3.63
2023-01-18T10:16:38.172Z,3.80
2023-01-18T10:19:16.433Z,3.88
2023-01-18T10:22:06.621Z,4.57
2023-01-18T10:24:55.431Z,3.10
2023-01-18T10:27:39.775Z,2.85
2023-01-18T10:30:36.520Z,2.83
2023-01-18T10:33:21.689Z,2.90
2023-01-18T10:35:55.779Z,2.65
2023-01-18T10:38:27.399Z,2.60
2023-01-18T10:40:59.182Z,3.20
2023-01-18T10:43:29.157Z,5.10
2023-01-18T10:45:57.139Z,4.07
2023-01-18T10:48:34.031Z,3.17
2023-01-18T10:51:05.378Z,3.10
2023-01-18T10:53:34.387Z,2.95
2023-01-18T10:56:02.256Z,2.60
2023-01-18T10:58:37.148Z,2.33
2023-01-18T11:01:06.080Z,3.28
2023-01-18T11:03:45.292Z,2.58
2023-01-18T11:06:16.573Z,1.80
2023-01-18T11:08:44.413Z,2.13
2023-01-18T11:11:19.339Z,1.90
2023-01-18T11:13:50.048Z,2.30
2023-01-18T11:16:24.757Z,5.13
2023-01-18T11:19:12.849Z,2.92
2023-01-18T11:21:41.614Z,1.95
2023-01-18T11:24:17.111Z,2.40
2023-01-18T11:27:24.488Z,2.00
2023-01-18T11:29:52.325Z,1.58
2023-01-18T11:32:30.981Z,1.80
2023-01-18T11:35:10.226Z,1.50
2023-01-18T11:37:41.419Z,2.90
2023-01-18T11:40:24.043Z,2.80
2023-01-18T11:42:57.812Z,1.20
2023-01-18T11:45:43.030Z,1.60
2023-01-18T11:48:14.055Z,3.70
2023-01-18T11:50:45.891Z,2.15
2023-01-18T11:53:44.015Z,1.73
2023-01-18T11:56:27.565Z,1.65
2023-01-18T11:58:58.832Z,2.65
2023-01-18T12:01:35.455Z,2.05
2023-01-18T12:04:23.271Z,1.77
2023-01-18T12:06:59.650Z,0.90
2023-01-18T12:09:46.092Z,1.80
2023-01-18T12:12:39.261Z,1.33
2023-01-18T12:15:46.597Z,1.27
2023-01-18T12:18:48.483Z,1.10
2023-01-18T12:21:45.291Z,1.10
2023-01-18T12:24:19.131Z,1.40
2023-01-18T12:27:00.388Z,1.13
2023-01-18T12:30:15.265Z,0.93
2023-01-18T12:33:04.825Z,0.77
2023-01-18T12:35:50.959Z,1.20
2023-01-18T12:38:28.588Z,1.48
2023-01-18T12:41:21.727Z,1.60
2023-01-18T12:44:07.148Z,1.13
2023-01-18T12:46:55.275Z,0.93
2023-01-18T12:49:23.270Z,1.40
2023-01-18T12:52:17.147Z,1.60
2023-01-18T12:54:51.692Z,1.52
2023-01-18T12:57:23.286Z,2.53
2023-01-18T13:00:02.097Z,8.88
2023-01-18T13:02:41.575Z,2.15
2023-01-18T13:05:19.214Z,3.17
2023-01-18T13:08:01.469Z,2.78
2023-01-18T13:10:29.744Z,3.65
2023-01-18T13:12:58.969Z,4.47
2023-01-18T13:15:51.269Z,3.35
2023-01-18T13:18:30.043Z,27.83
2023-01-18T13:21:27.192Z,19.63
2023-01-18T13:24:22.843Z,2.75
2023-01-18T13:26:53.358Z,3.97
2023-01-18T13:29:29.962Z,4.68
2023-01-18T13:31:58.420Z,4.60
2023-01-18T13:34:44.946Z,2.40
2023-01-18T13:37:38.040Z,3.20
2023-01-18T13:40:07.605Z,4.10
2023-01-18T13:42:40.841Z,2.15
2023-01-18T13:45:25.764Z,1.63
2023-01-18T13:48:01.118Z,1.25
2023-01-18T13:50:28.892Z,0.68
2023-01-18T13:53:15.137Z,0.98
2023-01-18T13:55:48.941Z,0.50
2023-01-18T13:58:28.812Z,0.80
2023-01-18T14:01:03.734Z,0.52
2023-01-18T14:03:47.157Z,0.70
2023-01-18T14:06:37.373Z,0.50
2023-01-18T14:09:09.528Z,0.93
2023-01-18T14:11:42.251Z,0.50
2023-01-18T14:14:17.665Z,0.60
2023-01-18T14:17:17.996Z,0.80
2023-01-18T14:19:49.844Z,0.60
2023-01-18T16:18:06.408Z,12.55
2023-01-18T16:20:36.011Z,13.75
2023-01-18T16:23:17.655Z,14.00
2023-01-18T16:25:57.445Z,16.02
2023-01-18T16:28:25.053Z,38.33
2023-01-18T16:30:54.073Z,41.83
2023-01-18T16:33:22.341Z,46.60
2023-01-18T16:35:50.051Z,47.05
2023-01-18T16:38:20.151Z,50.22
2023-01-18T16:40:50.675Z,50.45
2023-01-18T16:43:29.803Z,52.65
2023-01-18T16:46:05.394Z,54.47
2023-01-18T16:48:35.279Z,53.05
2023-01-18T16:51:05.813Z,48.70
2023-01-18T17:18:31.970Z,34.40
2023-01-18T17:28:03.161Z,36.92
2023-01-18T17:30:31.431Z,33.67
2023-01-18T17:33:01.019Z,25.95
2023-01-18T17:35:29.580Z,29.08
2023-01-18T17:38:05.040Z,25.10
2023-01-18T17:40:45.961Z,21.67
2023-01-18T17:43:22.146Z,17.85
2023-01-18T17:46:01.438Z,13.77
2023-01-18T17:48:29.954Z,14.05
2023-01-18T17:50:57.953Z,12.35
2023-01-18T17:53:26.610Z,10.25
2023-01-18T17:55:54.722Z,10.20
2023-01-18T17:58:22.766Z,8.43
2023-01-18T18:00:51.135Z,8.18
2023-01-18T18:03:24.417Z,9.85
2023-01-18T18:06:02.071Z,8.32
2023-01-18T22:36:07.580Z,15.63
2023-01-18T22:38:38.072Z,18.73
2023-01-18T22:41:27.159Z,12.35
2023-01-18T22:44:00.524Z,11.20
2023-01-18T23:24:49.644Z,7.05
